createdAt,value
2023-03-10T00:01:16.715Z,6.63
2023-03-10T00:03:45.453Z,3.13
2023-03-10T00:06:15.742Z,3.37
2023-03-10T00:08:44.359Z,3.43
2023-03-10T00:11:13.024Z,4.20
2023-03-10T00:13:40.878Z,3.87
2023-03-10T00:16:16.259Z,3.57
2023-03-10T00:18:45.277Z,2.37
2023-03-10T00:21:16.076Z,2.67
2023-03-10T00:23:44.270Z,2.27
2023-03-10T00:26:14.336Z,2.33
2023-03-10T00:28:42.633Z,3.57
2023-03-10T00:31:14.716Z,3.53
2023-03-10T00:33:42.917Z,2.27
2023-03-10T00:36:13.869Z,2.30
2023-03-10T00:38:43.077Z,2.10
2023-03-10T00:41:13.785Z,2.83
2023-03-10T00:43:42.529Z,6.50
2023-03-10T00:46:12.299Z,2.60
2023-03-10T00:48:40.424Z,2.27
2023-03-10T00:51:08.717Z,1.93
2023-03-10T00:53:37.865Z,2.67
2023-03-10T00:56:08.164Z,2.03
2023-03-10T00:58:36.805Z,2.53
2023-03-10T01:01:06.760Z,5.73
2023-03-10T01:03:36.235Z,4.70
2023-03-10T01:06:03.975Z,3.13
2023-03-10T01:08:32.124Z,4.93
2023-03-10T01:11:00.097Z,3.33
2023-03-10T01:13:27.975Z,4.57
2023-03-10T01:15:56.076Z,3.03
2023-03-10T01:18:25.482Z,3.00
2023-03-10T01:20:55.078Z,4.30
2023-03-10T01:23:24.524Z,3.70
2023-03-10T01:25:52.703Z,5.20
2023-03-10T01:28:21.064Z,3.00
2023-03-10T01:30:49.871Z,6.40
2023-03-10T01:33:18.970Z,4.00
2023-03-10T01:35:46.937Z,3.93
2023-03-10T01:38:16.482Z,5.73
2023-03-10T01:40:49.284Z,2.70
2023-03-10T01:43:28.995Z,3.07
2023-03-10T01:46:30.686Z,5.60
2023-03-10T01:49:01.442Z,2.60
2023-03-10T01:51:30.386Z,4.97
2023-03-10T01:53:59.902Z,2.67
2023-03-10T01:56:27.977Z,4.17
2023-03-10T01:58:56.023Z,3.57
2023-03-10T02:01:24.466Z,4.47
2023-03-10T02:03:55.943Z,2.63
2023-03-10T02:06:25.136Z,4.30
2023-03-10T02:08:54.480Z,3.40
2023-03-10T02:11:24.358Z,2.20
2023-03-10T02:13:52.679Z,3.03
2023-03-10T02:16:20.915Z,4.00
2023-03-10T02:18:49.865Z,4.73
2023-03-10T02:21:21.985Z,3.90
2023-03-10T02:24:01.071Z,3.50
2023-03-10T02:26:37.777Z,2.53
2023-03-10T02:29:09.586Z,4.20
2023-03-10T02:31:38.004Z,5.03
2023-03-10T02:34:06.866Z,4.27
2023-03-10T02:36:34.689Z,2.10
2023-03-10T02:39:02.488Z,5.07
2023-03-10T02:41:33.786Z,2.87
2023-03-10T02:44:03.796Z,1.73
2023-03-10T02:46:33.363Z,4.53
2023-03-10T02:49:02.265Z,2.67
2023-03-10T02:51:33.524Z,3.73
2023-03-10T02:54:01.783Z,2.87
2023-03-10T02:56:31.104Z,4.03
2023-03-10T02:58:59.622Z,3.33
2023-03-10T03:01:27.713Z,2.83
2023-03-10T03:03:57.528Z,5.13
2023-03-10T03:06:25.501Z,2.30
2023-03-10T03:08:53.521Z,5.33
2023-03-10T03:11:21.420Z,3.03
2023-03-10T03:13:49.477Z,2.50
2023-03-10T03:16:18.345Z,3.00
2023-03-10T03:18:46.194Z,5.57
2023-03-10T03:21:17.528Z,4.83
2023-03-10T03:23:46.902Z,4.03
2023-03-10T03:26:17.256Z,4.23
2023-03-10T03:28:46.322Z,5.20
2023-03-10T03:31:18.811Z,7.07
2023-03-10T03:33:47.224Z,7.23
2023-03-10T03:36:17.596Z,4.87
2023-03-10T03:38:45.567Z,3.73
2023-03-10T03:41:13.591Z,5.90
2023-03-10T03:43:41.348Z,4.97
2023-03-10T03:46:09.405Z,4.73
2023-03-10T03:48:38.224Z,4.47
2023-03-10T03:51:06.616Z,7.00
2023-03-10T03:53:35.892Z,5.20
2023-03-10T03:56:03.747Z,3.67
2023-03-10T03:58:31.767Z,4.50
2023-03-10T04:00:59.614Z,4.53
2023-03-10T04:03:30.506Z,8.27
2023-03-10T04:05:58.695Z,4.27
2023-03-10T04:08:26.456Z,5.90
2023-03-10T04:10:56.525Z,5.80
2023-03-10T04:13:24.289Z,4.10
2023-03-10T04:15:56.234Z,5.17
2023-03-10T04:18:24.003Z,4.70
2023-03-10T04:20:51.799Z,9.87
2023-03-10T04:23:19.594Z,5.17
2023-03-10T04:25:47.381Z,3.90
2023-03-10T04:28:16.536Z,3.57
2023-03-10T04:30:44.841Z,3.70
2023-03-10T04:33:12.679Z,4.83
2023-03-10T04:35:41.923Z,3.10
2023-03-10T04:38:10.159Z,5.03
2023-03-10T04:40:37.982Z,3.00
2023-03-10T04:43:05.817Z,5.80
2023-03-10T04:45:34.956Z,4.13
2023-03-10T04:48:02.761Z,3.50
2023-03-10T04:50:30.558Z,7.57
2023-03-10T04:52:58.334Z,6.50
2023-03-10T04:55:26.144Z,3.97
2023-03-10T04:57:53.902Z,7.00
2023-03-10T05:00:22.055Z,5.07
2023-03-10T05:02:51.450Z,3.57
2023-03-10T05:05:19.441Z,3.10
2023-03-10T05:07:47.196Z,5.17
2023-03-10T05:10:15.081Z,6.47
2023-03-10T05:12:43.134Z,5.77
2023-03-10T05:15:11.808Z,5.07
2023-03-10T05:17:39.636Z,7.53
2023-03-10T05:20:10.482Z,6.40
2023-03-10T05:22:38.929Z,7.23
2023-03-10T05:25:07.885Z,9.07
2023-03-10T05:27:36.562Z,7.57
2023-03-10T05:30:06.202Z,6.87
2023-03-10T05:32:35.208Z,5.17
2023-03-10T05:35:03.626Z,6.10
2023-03-10T05:37:33.299Z,7.73
2023-03-10T05:40:01.061Z,9.47
2023-03-10T05:42:28.810Z,11.93
2023-03-10T05:44:56.802Z,5.90
2023-03-10T05:47:24.825Z,12.93
2023-03-10T05:49:52.876Z,6.53
2023-03-10T05:52:20.664Z,8.70
2023-03-10T05:54:49.839Z,6.93
2023-03-10T05:57:17.703Z,7.53
2023-03-10T05:59:45.674Z,8.20
2023-03-10T06:02:13.660Z,8.43
2023-03-10T06:04:41.442Z,8.57
2023-03-10T06:07:09.339Z,7.77
2023-03-10T06:09:37.261Z,8.43
2023-03-10T06:12:07.041Z,9.60
2023-03-10T06:14:34.846Z,6.97
2023-03-10T06:17:02.624Z,9.37
2023-03-10T06:19:30.380Z,8.17
2023-03-10T06:21:58.192Z,7.43
2023-03-10T06:24:25.951Z,7.00
2023-03-10T06:26:53.736Z,4.47
2023-03-10T06:29:22.847Z,8.60
2023-03-10T06:31:50.738Z,15.30
2023-03-10T06:34:18.665Z,11.90
2023-03-10T06:36:46.490Z,8.67
2023-03-10T06:39:14.244Z,10.53
2023-03-10T06:41:42.014Z,9.90
2023-03-10T06:44:09.817Z,7.30
2023-03-10T06:46:39.873Z,11.20
2023-03-10T06:49:07.605Z,8.43
2023-03-10T06:51:35.387Z,6.57
2023-03-10T06:54:03.312Z,7.03
2023-03-10T06:56:31.271Z,8.83
2023-03-10T06:58:59.032Z,6.43
2023-03-10T07:01:28.481Z,7.57
2023-03-10T07:03:57.996Z,5.83
2023-03-10T07:06:26.235Z,8.13
2023-03-10T07:08:54.386Z,9.60
2023-03-10T07:11:22.498Z,10.70
2023-03-10T07:13:50.338Z,7.77
2023-03-10T07:16:18.285Z,8.17
2023-03-10T07:18:46.649Z,9.27
2023-03-10T07:21:17.494Z,14.27
2023-03-10T07:23:45.380Z,8.27
2023-03-10T07:26:15.621Z,10.07
2023-03-10T07:28:43.413Z,9.13
2023-03-10T07:31:12.960Z,7.30
2023-03-10T07:33:41.082Z,33.50
2023-03-10T07:36:10.747Z,65.57
2023-03-10T07:38:40.169Z,45.73
2023-03-10T07:41:09.394Z,10.90
2023-03-10T07:43:37.286Z,26.30
2023-03-10T07:46:09.938Z,8.23
2023-03-10T07:48:37.970Z,7.33
2023-03-10T07:51:06.298Z,8.63
2023-03-10T07:53:34.348Z,5.97
2023-03-10T07:56:07.299Z,6.97
2023-03-10T07:58:35.786Z,10.47
2023-03-10T08:01:04.270Z,8.90
2023-03-10T08:03:34.023Z,4.30
2023-03-10T08:06:02.672Z,6.10
2023-03-10T08:08:30.723Z,4.17
2023-03-10T08:11:03.806Z,5.03
2023-03-10T08:13:33.839Z,5.43
2023-03-10T08:16:02.507Z,5.27
2023-03-10T08:18:31.538Z,3.93
2023-03-10T08:20:59.536Z,4.67
2023-03-10T08:23:27.372Z,6.63
2023-03-10T08:25:55.200Z,7.30
2023-03-10T08:28:23.032Z,6.90
2023-03-10T08:31:03.662Z,4.80
2023-03-10T08:33:33.106Z,2.37
2023-03-10T08:36:06.219Z,5.47
2023-03-10T08:38:34.083Z,5.50
2023-03-10T08:41:10.121Z,3.93
2023-03-10T08:43:38.215Z,4.57
2023-03-10T08:46:09.537Z,4.13
2023-03-10T08:48:37.490Z,6.43
2023-03-10T08:51:06.066Z,4.20
2023-03-10T08:53:34.479Z,4.40
2023-03-10T08:56:02.304Z,3.53
2023-03-10T08:58:30.114Z,2.23
2023-03-10T09:00:57.994Z,4.07
2023-03-10T09:03:29.497Z,4.20
2023-03-10T09:05:59.180Z,5.17
2023-03-10T09:08:27.861Z,3.97
2023-03-10T09:10:56.197Z,3.80
2023-03-10T09:13:24.088Z,4.50
2023-03-10T09:15:52.988Z,7.43
2023-03-10T09:18:24.634Z,4.63
2023-03-10T09:20:53.787Z,5.83
2023-03-10T09:23:21.608Z,4.20
2023-03-10T09:25:49.409Z,5.40
2023-03-10T09:28:18.761Z,5.90
2023-03-10T09:30:48.157Z,5.20
2023-03-10T09:33:18.289Z,6.93
2023-03-10T09:35:52.923Z,3.73
2023-03-10T09:38:31.922Z,5.03
2023-03-10T09:41:08.525Z,4.00
2023-03-10T09:43:38.957Z,3.27
2023-03-10T09:46:13.905Z,5.93
2023-03-10T09:48:47.695Z,5.43
2023-03-10T09:51:18.202Z,3.70
2023-03-10T09:53:56.646Z,5.07
2023-03-10T09:56:29.743Z,5.33
2023-03-10T09:59:00.450Z,3.53
2023-03-10T10:01:31.049Z,3.43
2023-03-10T10:04:01.752Z,2.70
2023-03-10T10:06:34.441Z,3.57
2023-03-10T10:09:07.161Z,3.20
2023-03-10T10:11:36.817Z,4.13
2023-03-10T10:14:31.630Z,2.70
2023-03-10T10:17:08.191Z,3.10
2023-03-10T10:19:39.429Z,5.50
2023-03-10T10:22:11.931Z,3.80
2023-03-10T10:24:41.580Z,3.27
2023-03-10T10:27:09.406Z,4.13
2023-03-10T10:29:38.506Z,2.07
2023-03-10T10:32:09.511Z,3.40
2023-03-10T10:34:38.589Z,4.37
2023-03-10T10:37:23.174Z,2.87
2023-03-10T10:39:53.095Z,1.63
2023-03-10T10:42:24.262Z,3.97
2023-03-10T10:44:53.526Z,4.10
2023-03-10T10:47:30.223Z,2.57
2023-03-10T10:50:12.225Z,3.57
2023-03-10T10:52:40.108Z,2.23
2023-03-10T10:55:27.436Z,3.07
2023-03-10T10:57:58.796Z,3.43
2023-03-10T11:00:29.764Z,4.83
2023-03-10T11:02:57.735Z,2.53
2023-03-10T11:05:32.563Z,4.27
2023-03-10T11:08:17.930Z,4.43
2023-03-10T11:10:48.952Z,4.27
2023-03-10T11:13:18.848Z,1.97
2023-03-10T11:15:53.109Z,3.03
2023-03-10T11:18:23.409Z,3.23
2023-03-10T11:20:56.281Z,2.27
2023-03-10T11:23:27.847Z,1.63
2023-03-10T11:26:02.552Z,1.90
2023-03-10T11:28:42.264Z,3.07
2023-03-10T11:31:22.482Z,2.40
2023-03-10T11:33:52.500Z,1.57
2023-03-10T11:36:32.126Z,2.30
2023-03-10T11:39:07.477Z,2.27
2023-03-10T11:41:41.172Z,2.50
2023-03-10T11:44:15.778Z,2.00
2023-03-10T11:46:48.469Z,2.20
2023-03-10T11:49:17.579Z,1.70
2023-03-10T11:51:47.684Z,2.27
2023-03-10T11:54:18.100Z,1.30
2023-03-10T11:56:48.305Z,2.30
2023-03-10T11:59:18.596Z,2.93
2023-03-10T12:01:49.786Z,1.83
2023-03-10T12:04:21.498Z,2.83
2023-03-10T12:06:54.190Z,2.03
2023-03-10T12:09:32.911Z,3.40
2023-03-10T12:12:02.428Z,1.83
2023-03-10T12:14:30.546Z,2.57
2023-03-10T12:16:58.639Z,2.43
2023-03-10T12:19:26.446Z,2.17
2023-03-10T12:22:34.784Z,12.70
2023-03-10T12:25:02.640Z,15.30
2023-03-10T12:27:31.793Z,4.97
2023-03-10T12:29:59.578Z,3.80
2023-03-10T12:32:42.467Z,2.97
2023-03-10T12:35:40.900Z,3.83
2023-03-10T12:38:28.962Z,3.30
2023-03-10T12:40:57.062Z,2.87
2023-03-10T12:44:04.861Z,2.57
2023-03-10T12:46:45.641Z,3.67
2023-03-10T12:49:33.196Z,2.20
2023-03-10T12:52:14.303Z,4.17
2023-03-10T12:54:56.636Z,4.43
2023-03-10T12:57:31.393Z,1.87
2023-03-10T13:00:03.257Z,1.83
2023-03-10T13:02:35.079Z,2.43
2023-03-10T13:05:06.257Z,1.40
2023-03-10T13:07:36.269Z,2.17
2023-03-10T13:10:04.875Z,2.60
2023-03-10T13:12:36.684Z,2.40
2023-03-10T13:15:08.257Z,1.60
2023-03-10T13:17:37.436Z,3.10
2023-03-10T13:20:08.885Z,1.83
2023-03-10T13:22:37.243Z,2.27
2023-03-10T13:25:09.627Z,3.87
2023-03-10T13:27:37.454Z,4.20
2023-03-10T13:30:12.120Z,2.73
2023-03-10T13:32:41.639Z,3.10
2023-03-10T13:35:25.010Z,5.20
2023-03-10T13:38:08.457Z,2.17
2023-03-10T13:40:37.139Z,3.13
2023-03-10T13:43:06.323Z,1.83
2023-03-10T13:45:34.999Z,4.43
2023-03-10T13:48:05.730Z,5.83
2023-03-10T13:50:33.844Z,1.97
2023-03-10T13:53:02.107Z,2.53
2023-03-10T13:55:30.239Z,1.67
2023-03-10T13:57:59.473Z,1.73
2023-03-10T14:00:28.000Z,4.70
2023-03-10T14:02:56.255Z,2.50
2023-03-10T14:05:45.974Z,1.97
2023-03-10T14:08:22.099Z,3.00
2023-03-10T14:10:49.924Z,1.70
2023-03-10T14:13:43.365Z,1.43
2023-03-10T14:16:11.206Z,1.57
2023-03-10T14:18:40.245Z,1.83
2023-03-10T14:21:32.374Z,1.87
2023-03-10T14:24:05.336Z,2.97
2023-03-10T14:26:33.203Z,2.33
2023-03-10T14:29:02.257Z,1.80
2023-03-10T14:31:30.131Z,2.10
2023-03-10T14:33:57.880Z,1.30
2023-03-10T14:36:26.000Z,1.10
2023-03-10T14:38:55.201Z,2.00
2023-03-10T14:41:25.162Z,1.00
2023-03-10T14:43:53.269Z,3.17
2023-03-10T14:46:21.312Z,0.90
2023-03-10T14:48:49.220Z,0.90
2023-03-10T14:51:32.665Z,0.90
2023-03-10T14:54:03.572Z,1.00
2023-03-10T14:56:31.846Z,1.20
2023-03-10T14:59:02.245Z,1.00
2023-03-10T15:01:30.514Z,0.90
2023-03-10T15:03:58.301Z,0.97
2023-03-10T15:06:26.159Z,1.50
2023-03-10T15:08:53.943Z,0.83
2023-03-10T15:11:36.088Z,0.80
2023-03-10T15:14:04.829Z,1.00
2023-03-10T15:16:32.660Z,0.90
2023-03-10T15:19:00.434Z,0.80
2023-03-10T15:21:29.022Z,1.37
2023-03-10T15:23:56.801Z,0.70
2023-03-10T15:26:25.939Z,1.00
2023-03-10T15:28:53.729Z,0.77
2023-03-10T15:31:21.596Z,1.03
2023-03-10T15:33:49.363Z,2.60
2023-03-10T15:36:17.234Z,0.90
2023-03-10T15:38:45.066Z,0.83
2023-03-10T15:41:13.589Z,1.00
2023-03-10T15:43:42.711Z,1.10
2023-03-10T15:46:10.817Z,0.90
2023-03-10T15:48:38.598Z,0.97
2023-03-10T15:51:10.006Z,1.30
2023-03-10T15:53:38.103Z,1.90
2023-03-10T15:56:07.274Z,0.70
2023-03-10T15:58:35.096Z,0.80
2023-03-10T16:01:08.859Z,0.70
2023-03-10T16:03:37.262Z,0.70
2023-03-10T16:06:05.368Z,0.80
2023-03-10T16:08:37.368Z,0.70
2023-03-10T16:11:09.274Z,0.70
2023-03-10T16:13:37.266Z,0.70
2023-03-10T16:16:08.427Z,0.70
2023-03-10T16:18:36.918Z,0.70
2023-03-10T16:21:05.508Z,0.70
2023-03-10T16:23:34.262Z,0.70
2023-03-10T16:26:06.890Z,0.70
2023-03-10T16:28:34.834Z,0.67
2023-03-10T16:31:03.760Z,0.80
2023-03-10T16:33:33.268Z,0.80
2023-03-10T16:36:01.369Z,0.60
2023-03-10T16:38:29.223Z,0.70
2023-03-10T16:40:57.988Z,1.30
2023-03-10T16:43:29.087Z,2.83
2023-03-10T16:46:07.165Z,1.40
2023-03-10T16:48:38.284Z,1.73
2023-03-10T16:51:19.577Z,1.40
2023-03-10T16:53:47.502Z,2.60
2023-03-10T16:56:15.580Z,2.57
2023-03-10T16:58:43.375Z,2.57
2023-03-10T17:01:11.329Z,2.13
2023-03-10T17:03:40.637Z,5.43
2023-03-10T17:06:10.318Z,1.50
2023-03-10T17:08:38.613Z,2.53
2023-03-10T17:11:07.512Z,2.07
2023-03-10T17:13:36.716Z,3.03
2023-03-10T17:16:12.534Z,1.30
2023-03-10T17:18:41.796Z,5.53
2023-03-10T17:21:16.577Z,1.37
2023-03-10T17:23:44.880Z,3.67
2023-03-10T17:26:12.995Z,5.10
2023-03-10T17:28:41.871Z,2.87
2023-03-10T17:31:10.606Z,2.33
2023-03-10T17:33:38.506Z,1.67
2023-03-10T17:36:09.278Z,2.90
2023-03-10T17:38:37.444Z,1.10
2023-03-10T17:41:06.267Z,1.10
2023-03-10T17:43:34.805Z,1.43
2023-03-10T17:46:04.681Z,2.10
2023-03-10T17:48:33.302Z,1.93
2023-03-10T17:51:01.429Z,3.10
2023-03-10T17:53:30.656Z,1.20
2023-03-10T17:55:58.921Z,1.17
2023-03-10T17:58:27.028Z,1.20
2023-03-10T18:00:55.009Z,1.10
2023-03-10T18:03:23.049Z,1.10
2023-03-10T18:05:50.884Z,0.90
2023-03-10T18:08:18.686Z,0.80
2023-03-10T18:10:47.885Z,0.90
2023-03-10T18:13:15.800Z,0.83
2023-03-10T18:15:44.345Z,1.13
2023-03-10T18:18:12.157Z,3.30
2023-03-10T18:20:39.944Z,1.10
2023-03-10T18:23:07.769Z,0.97
2023-03-10T18:25:35.597Z,0.70
2023-03-10T18:28:06.097Z,2.17
2023-03-10T18:30:33.845Z,1.20
2023-03-10T18:33:01.627Z,0.83
2023-03-10T18:35:29.449Z,0.90
2023-03-10T18:37:57.348Z,2.20
2023-03-10T18:40:25.233Z,0.80
2023-03-10T18:42:53.022Z,0.80
2023-03-10T18:45:22.328Z,1.10
2023-03-10T18:47:50.112Z,1.00
2023-03-10T18:50:18.401Z,1.90
2023-03-10T18:52:47.006Z,2.03
2023-03-10T18:55:15.153Z,1.50
2023-03-10T18:57:44.733Z,1.50
2023-03-10T19:00:15.426Z,1.70
2023-03-10T19:02:44.679Z,2.03
2023-03-10T19:05:14.352Z,1.87
2023-03-10T19:07:42.134Z,2.80
2023-03-10T19:10:12.639Z,3.20
2023-03-10T19:12:40.537Z,2.97
2023-03-10T19:15:10.049Z,2.63
2023-03-10T19:17:39.656Z,2.37
2023-03-10T19:20:11.491Z,1.90
2023-03-10T19:22:40.370Z,4.20
2023-03-10T19:25:10.086Z,3.70
2023-03-10T19:27:40.373Z,3.77
2023-03-10T19:30:11.530Z,3.70
2023-03-10T19:32:39.665Z,5.60
2023-03-10T19:35:10.341Z,5.10
2023-03-10T19:37:38.792Z,3.43
2023-03-10T19:40:09.216Z,2.43
2023-03-10T19:42:38.852Z,4.23
2023-03-10T19:45:08.194Z,5.00
2023-03-10T19:47:35.995Z,3.20
2023-03-10T19:50:03.841Z,3.57
2023-03-10T19:52:33.084Z,2.80
2023-03-10T19:55:01.182Z,3.93
2023-03-10T19:57:29.052Z,3.30
2023-03-10T19:59:56.863Z,3.00
2023-03-10T20:02:25.918Z,3.30
2023-03-10T20:04:53.783Z,3.70
2023-03-10T20:07:21.560Z,5.13
2023-03-10T20:09:50.744Z,3.33
2023-03-10T20:12:18.621Z,3.77
2023-03-10T20:14:46.392Z,3.37
2023-03-10T20:17:14.163Z,4.23
2023-03-10T20:19:43.393Z,2.80
2023-03-10T20:22:11.266Z,5.53
2023-03-10T20:24:39.062Z,2.97
2023-03-10T20:27:08.171Z,2.47
2023-03-10T20:29:36.185Z,2.23
2023-03-10T20:32:05.508Z,3.40
2023-03-10T20:34:33.640Z,3.30
2023-03-10T20:37:01.450Z,4.83
2023-03-10T20:39:29.255Z,2.60
2023-03-10T20:41:57.042Z,3.70
2023-03-10T20:44:26.202Z,2.97
2023-03-10T20:46:54.012Z,4.37
2023-03-10T20:49:21.778Z,4.17
2023-03-10T20:51:49.571Z,2.43
2023-03-10T20:54:17.826Z,2.40
2023-03-10T20:56:45.711Z,2.70
2023-03-10T20:59:13.532Z,2.57
2023-03-10T21:01:42.926Z,3.13
2023-03-10T21:04:10.819Z,1.97
2023-03-10T21:06:38.642Z,2.70
2023-03-10T21:09:06.911Z,2.23
2023-03-10T21:11:35.748Z,2.70
2023-03-10T21:14:03.842Z,5.67
2023-03-10T21:16:31.841Z,2.37
2023-03-10T21:19:01.056Z,2.23
2023-03-10T21:21:31.663Z,2.00
2023-03-10T21:23:59.443Z,1.70
2023-03-10T21:26:27.381Z,5.30
2023-03-10T21:28:55.177Z,2.00
2023-03-10T21:31:23.212Z,1.87
2023-03-10T21:33:51.267Z,1.90
2023-03-10T21:36:21.999Z,2.17
2023-03-10T21:38:50.345Z,2.00
2023-03-10T21:41:19.591Z,2.90
2023-03-10T21:43:47.932Z,1.90
2023-03-10T21:46:16.159Z,2.20
2023-03-10T21:48:44.367Z,2.20
2023-03-10T21:51:14.283Z,2.13
2023-03-10T21:53:43.802Z,2.03
2023-03-10T21:56:11.911Z,1.63
2023-03-10T21:58:39.746Z,2.20
2023-03-10T22:01:08.128Z,3.73
2023-03-10T22:03:36.226Z,2.40
2023-03-10T22:06:05.063Z,2.27
2023-03-10T22:08:33.112Z,0.47
2023-03-10T22:11:02.380Z,0.50
2023-03-10T22:13:30.175Z,0.40
2023-03-10T22:16:00.387Z,0.40
2023-03-10T22:18:28.410Z,0.47
2023-03-10T22:20:56.247Z,0.40
2023-03-10T22:23:24.114Z,0.53
2023-03-10T22:25:51.936Z,0.50
2023-03-10T22:28:21.124Z,0.50
2023-03-10T22:30:48.883Z,0.40
2023-03-10T22:33:16.702Z,0.50
2023-03-10T22:35:45.273Z,0.43
2023-03-10T22:38:13.605Z,0.40
2023-03-10T22:40:41.438Z,0.53
2023-03-10T22:43:10.925Z,2.10
2023-03-10T22:45:41.848Z,1.80
2023-03-10T22:48:09.703Z,1.40
2023-03-10T22:50:39.408Z,2.57
2023-03-10T22:53:09.095Z,1.33
2023-03-10T22:55:36.884Z,1.43
2023-03-10T22:58:05.859Z,4.43
2023-03-10T23:00:34.720Z,2.00
2023-03-10T23:03:04.979Z,1.60
2023-03-10T23:05:33.411Z,1.50
2023-03-10T23:08:01.293Z,3.10
2023-03-10T23:10:31.605Z,1.67
2023-03-10T23:13:00.434Z,1.87
2023-03-10T23:15:30.776Z,2.57
2023-03-10T23:17:59.349Z,1.67
2023-03-10T23:20:31.794Z,2.73
2023-03-10T23:23:01.034Z,3.07
2023-03-10T23:25:31.389Z,1.47
2023-03-10T23:27:59.895Z,1.97
2023-03-10T23:30:27.883Z,3.33
2023-03-10T23:32:56.307Z,2.10
2023-03-10T23:35:25.757Z,1.50
2023-03-10T23:37:55.520Z,1.93
2023-03-10T23:40:27.130Z,2.10
2023-03-10T23:42:55.612Z,1.33
2023-03-10T23:45:24.896Z,1.40
2023-03-10T23:47:55.070Z,4.77
2023-03-10T23:50:26.369Z,2.87
2023-03-10T23:52:56.751Z,3.33
2023-03-10T23:55:27.068Z,2.10
2023-03-10T23:57:55.669Z,3.87
